Terminal Aerodrome Forecast
Issued by NWS

Home | Current Version | Previous Version | Graphics & Text | Print | Product List | Glossary Off
Versions: 1 2 3 4 5 6 7 8 9 10 11 12 13 14 15 16 17 18 19 20 21

000
FTUS43 KMPX 292330
TAFRNH
TAF
KRNH 292330Z 3000/3024 27008KT P6SM VCTS SCT060CB
     FM300100 27006KT P6SM FEW050
     FM300800 VRB03KT 4SM BR FEW005
     FM301200 24005KT P6SM SKC
     FM301800 19009KT P6SM SCT200=

USA.gov is the U.S. government's official web portal to all federal, state and local government web resources and services.